createdAt,value
2023-01-08T00:00:06.053Z,7.95
2023-01-08T00:01:18.109Z,8.03
2023-01-08T00:01:59.069Z,8.07
2023-01-08T00:02:46.118Z,8.16
2023-01-08T00:03:19.941Z,8.09
2023-01-08T00:04:09.111Z,8.06
2023-01-08T00:04:43.088Z,8.08
2023-01-08T00:05:30.052Z,8.04
2023-01-08T00:06:06.393Z,8.07
2023-01-08T00:06:54.031Z,8.03
2023-01-08T00:07:27.991Z,8.05
2023-01-08T00:08:08.053Z,8.00
2023-01-08T00:08:42.115Z,7.99
2023-01-08T00:09:15.735Z,7.95
2023-01-08T00:09:57.042Z,7.96
2023-01-08T00:10:31.139Z,7.95
2023-01-08T00:11:05.175Z,7.87
2023-01-08T00:11:46.051Z,7.85
2023-01-08T00:12:20.106Z,7.99
2023-01-08T00:12:56.068Z,8.05
2023-01-08T00:13:37.059Z,8.10
2023-01-08T00:14:11.095Z,7.99
2023-01-08T00:14:44.747Z,7.93
2023-01-08T00:15:25.043Z,7.97
2023-01-08T00:15:59.949Z,8.11
2023-01-08T00:16:33.813Z,8.12
2023-01-08T00:17:15.051Z,8.09
2023-01-08T00:17:49.103Z,8.05
2023-01-08T00:18:24.136Z,7.98
2023-01-08T00:19:05.034Z,8.09
2023-01-08T00:19:41.907Z,8.20
2023-01-08T00:20:15.892Z,8.05
2023-01-08T00:20:56.032Z,8.22
2023-01-08T00:21:37.100Z,8.25
2023-01-08T00:22:17.057Z,8.25
2023-01-08T00:22:58.091Z,8.26
2023-01-08T00:23:39.045Z,8.23
2023-01-08T00:24:26.044Z,8.33
2023-01-08T00:24:59.724Z,8.35
2023-01-08T00:25:47.044Z,8.33
2023-01-08T00:26:22.002Z,8.12
2023-01-08T00:27:09.015Z,8.13
2023-01-08T00:27:43.001Z,8.32
2023-01-08T00:28:30.032Z,8.28
2023-01-08T00:29:03.743Z,8.32
2023-01-08T00:29:51.069Z,8.30
2023-01-08T00:30:24.752Z,8.32
2023-01-08T00:31:13.091Z,8.19
2023-01-08T00:31:46.789Z,8.14
2023-01-08T00:32:34.015Z,8.15
2023-01-08T00:33:07.761Z,8.31
2023-01-08T00:33:56.023Z,8.24
2023-01-08T00:34:29.765Z,8.14
2023-01-08T00:35:12.065Z,8.25
2023-01-08T00:35:46.082Z,8.26
2023-01-08T00:36:20.482Z,8.27
2023-01-08T00:37:00.014Z,8.18
2023-01-08T00:37:35.076Z,8.19
2023-01-08T00:38:08.988Z,8.20
2023-01-08T00:38:51.024Z,8.30
2023-01-08T00:39:25.098Z,8.22
2023-01-08T00:39:58.681Z,8.28
2023-01-08T00:40:43.044Z,8.06
2023-01-08T00:41:17.098Z,8.15
2023-01-08T00:41:50.808Z,8.19
2023-01-08T00:42:31.213Z,8.14
2023-01-08T00:43:05.093Z,8.14
2023-01-08T00:43:38.775Z,8.06
2023-01-08T00:44:20.014Z,8.09
2023-01-08T00:44:54.067Z,8.17
2023-01-08T00:45:27.754Z,8.12
2023-01-08T00:46:09.099Z,8.02
2023-01-08T00:46:43.058Z,8.06
2023-01-08T00:47:16.750Z,8.11
2023-01-08T00:47:57.016Z,8.07
2023-01-08T00:48:31.356Z,8.14
2023-01-08T00:49:05.722Z,8.16
2023-01-08T00:49:45.988Z,8.00
2023-01-08T00:50:20.069Z,8.16
2023-01-08T00:50:54.208Z,8.08
2023-01-08T00:51:34.023Z,8.09
2023-01-08T00:52:08.065Z,8.03
2023-01-08T00:52:54.994Z,8.01
2023-01-08T00:53:30.095Z,8.12
2023-01-08T00:54:18.145Z,7.98
2023-01-08T00:54:52.067Z,7.95
2023-01-08T00:55:39.003Z,7.97
2023-01-08T00:56:17.070Z,7.95
2023-01-08T00:56:57.025Z,8.09
2023-01-08T00:57:45.055Z,8.17
2023-01-08T00:58:24.977Z,8.10
2023-01-08T00:59:05.040Z,8.09
2023-01-08T00:59:44.978Z,8.04
2023-01-08T01:00:25.446Z,8.06
2023-01-08T01:01:06.019Z,8.02
2023-01-08T01:01:46.116Z,7.89
2023-01-08T01:02:26.134Z,7.90
2023-01-08T01:03:06.054Z,7.87
2023-01-08T01:03:47.029Z,7.90
2023-01-08T01:04:27.134Z,7.87
2023-01-08T01:05:06.984Z,7.90
2023-01-08T01:05:47.039Z,7.86
2023-01-08T01:06:27.971Z,7.86
2023-01-08T01:07:08.082Z,7.90
2023-01-08T01:07:50.021Z,7.82
2023-01-08T01:08:30.083Z,7.75
2023-01-08T01:09:10.986Z,7.70
2023-01-08T01:09:51.060Z,7.72
2023-01-08T01:10:30.976Z,7.69
2023-01-08T01:11:17.064Z,7.56
2023-01-08T01:11:56.976Z,7.33
2023-01-08T01:12:37.167Z,7.50
2023-01-08T01:13:18.011Z,7.32
2023-01-08T01:13:59.067Z,7.40
2023-01-08T01:14:38.991Z,7.37
2023-01-08T01:15:22.071Z,7.28
2023-01-08T01:16:06.962Z,7.18
2023-01-08T01:16:48.604Z,7.27
2023-01-08T01:17:29.965Z,7.47
2023-01-08T01:18:10.047Z,7.49
2023-01-08T01:18:50.975Z,7.40
2023-01-08T01:19:31.028Z,7.40
2023-01-08T01:20:12.988Z,7.32
2023-01-08T01:20:53.040Z,7.31
2023-01-08T01:21:37.981Z,7.26
2023-01-08T01:22:19.195Z,7.20
2023-01-08T01:22:58.966Z,7.26
2023-01-08T01:23:39.021Z,7.17
2023-01-08T01:24:19.967Z,7.28
2023-01-08T01:25:00.011Z,7.09
2023-01-08T01:25:45.873Z,7.03
2023-01-08T01:26:28.052Z,7.09
2023-01-08T01:27:08.976Z,6.97
2023-01-08T01:27:49.033Z,6.87
2023-01-08T01:28:28.988Z,6.87
2023-01-08T01:29:09.147Z,7.10
2023-01-08T01:29:49.004Z,7.06
2023-01-08T01:30:29.012Z,7.09
2023-01-08T01:31:09.984Z,7.06
2023-01-08T01:31:50.028Z,6.99
2023-01-08T01:32:29.961Z,6.91
2023-01-08T01:33:10.054Z,6.86
2023-01-08T01:33:49.969Z,7.02
2023-01-08T01:34:30.036Z,7.00
2023-01-08T01:35:10.968Z,7.02
2023-01-08T01:35:51.044Z,6.95
2023-01-08T01:36:32.951Z,6.95
2023-01-08T01:37:13.187Z,7.06
2023-01-08T01:37:52.956Z,6.94
2023-01-08T01:38:32.993Z,7.02
2023-01-08T01:39:13.946Z,6.93
2023-01-08T01:39:54.127Z,7.02
2023-01-08T01:40:34.009Z,7.11
2023-01-08T01:41:14.033Z,7.13
2023-01-08T01:41:53.950Z,7.02
2023-01-08T01:42:39.948Z,7.08
2023-01-08T01:43:20.939Z,7.06
2023-01-08T01:44:05.014Z,7.02
2023-01-08T01:44:51.928Z,7.09
2023-01-08T01:45:41.021Z,7.13
2023-01-08T01:46:53.989Z,6.98
2023-01-08T01:47:51.946Z,7.01
2023-01-08T01:48:45.934Z,7.04
2023-01-08T01:49:39.956Z,7.02
2023-01-08T01:50:54.968Z,7.05
2023-01-08T01:51:49.967Z,6.85
2023-01-08T01:52:47.957Z,6.79
2023-01-08T01:53:47.968Z,6.94
2023-01-08T01:54:43.943Z,6.92
2023-01-08T01:55:39.938Z,6.83
2023-01-08T01:56:20.947Z,6.87
2023-01-08T01:57:01.171Z,6.87
2023-01-08T01:57:40.913Z,7.07
2023-01-08T01:58:23.023Z,7.08
2023-01-08T01:59:03.949Z,6.94
2023-01-08T01:59:43.994Z,7.00
2023-01-08T02:00:24.940Z,6.95
2023-01-08T02:01:11.096Z,6.99
2023-01-08T02:01:52.123Z,7.01
2023-01-08T02:02:32.628Z,7.07
2023-01-08T02:03:13.931Z,6.98
2023-01-08T02:03:54.026Z,6.95
2023-01-08T02:04:33.941Z,6.92
2023-01-08T02:05:14.967Z,6.78
2023-01-08T02:06:20.940Z,6.89
2023-01-08T02:07:21.010Z,6.94
2023-01-08T02:08:26.917Z,6.97
2023-01-08T02:09:36.923Z,6.96
2023-01-08T02:10:42.909Z,6.86
2023-01-08T02:12:19.957Z,6.89
2023-01-08T02:13:05.948Z,6.78
2023-01-08T02:13:50.008Z,6.75
2023-01-08T02:14:45.927Z,6.81
2023-01-08T02:15:40.983Z,6.82
2023-01-08T02:16:27.920Z,6.76
2023-01-08T02:17:15.992Z,6.85
2023-01-08T02:18:15.919Z,6.78
2023-01-08T02:19:27.014Z,6.83
2023-01-08T02:20:33.918Z,6.86
2023-01-08T02:21:19.992Z,6.78
2023-01-08T02:22:35.897Z,6.80
2023-01-08T02:24:11.920Z,6.75
2023-01-08T02:25:30.914Z,6.74
2023-01-08T02:26:43.916Z,6.55
2023-01-08T02:27:38.905Z,6.55
2023-01-08T02:28:33.905Z,6.55
2023-01-08T02:29:31.923Z,6.50
2023-01-08T02:30:25.897Z,6.53
2023-01-08T02:31:20.031Z,6.53
2023-01-08T02:32:13.904Z,6.35
2023-01-08T02:33:07.916Z,6.26
2023-01-08T02:34:01.889Z,6.32
2023-01-08T02:34:48.911Z,6.26
2023-01-08T02:35:23.021Z,6.13
2023-01-08T02:36:49.888Z,6.35
2023-01-08T02:37:23.947Z,6.37
2023-01-08T02:38:11.896Z,6.27
2023-01-08T02:39:15.667Z,6.16
2023-01-08T02:40:18.903Z,6.34
2023-01-08T02:41:12.966Z,6.21
2023-01-08T02:41:59.867Z,6.42
2023-01-08T02:42:52.987Z,6.17
2023-01-08T02:43:52.888Z,6.32
2023-01-08T02:45:16.974Z,6.32
2023-01-08T02:46:01.956Z,6.25
2023-01-08T02:46:44.951Z,6.35
2023-01-08T02:47:47.870Z,6.45
2023-01-08T02:48:48.947Z,6.37
2023-01-08T02:49:31.872Z,6.17
2023-01-08T02:50:28.968Z,6.31
2023-01-08T02:51:13.903Z,6.37
2023-01-08T02:52:00.330Z,6.45
2023-01-08T02:52:48.888Z,6.50
2023-01-08T02:53:42.989Z,6.54
2023-01-08T02:54:30.896Z,6.56
2023-01-08T02:55:11.941Z,6.50
2023-01-08T02:55:57.866Z,6.46
2023-01-08T02:56:42.879Z,6.23
2023-01-08T02:57:21.969Z,6.46
2023-01-08T02:58:10.873Z,6.55
2023-01-08T02:58:47.886Z,6.55
2023-01-08T02:59:36.876Z,6.58
2023-01-08T03:00:12.944Z,6.52
2023-01-08T03:01:00.885Z,6.53
2023-01-08T03:01:35.292Z,6.50
2023-01-08T03:03:33.873Z,6.58
2023-01-08T03:04:14.005Z,6.53
2023-01-08T03:05:08.874Z,6.54
2023-01-08T03:05:42.969Z,6.50
2023-01-08T03:06:30.871Z,6.61
2023-01-08T03:07:04.926Z,6.61
2023-01-08T03:07:51.863Z,6.35
2023-01-08T03:08:25.919Z,6.35
2023-01-08T03:09:06.926Z,6.47
2023-01-08T03:09:46.926Z,6.44
2023-01-08T03:10:29.868Z,6.54
2023-01-08T03:11:18.937Z,6.59
2023-01-08T03:12:30.846Z,6.62
2023-01-08T03:13:17.924Z,6.59
2023-01-08T03:14:20.875Z,6.50
2023-01-08T03:15:07.909Z,6.47
2023-01-08T03:15:58.830Z,6.44
2023-01-08T03:16:55.994Z,6.48
2023-01-08T03:17:43.859Z,6.47
2023-01-08T03:18:32.069Z,6.44
2023-01-08T03:19:52.879Z,6.48
2023-01-08T03:20:32.922Z,6.37
2023-01-08T03:21:13.854Z,6.33
2023-01-08T03:21:55.599Z,6.24
2023-01-08T03:22:37.833Z,6.14
2023-01-08T03:23:33.851Z,6.16
2023-01-08T03:24:30.844Z,6.27
2023-01-08T03:25:21.861Z,6.30
2023-01-08T03:25:56.002Z,6.25
2023-01-08T03:26:43.830Z,6.32
2023-01-08T03:27:21.896Z,6.28
2023-01-08T03:28:12.834Z,6.32
2023-01-08T03:28:52.889Z,6.12
2023-01-08T03:29:40.839Z,6.20
2023-01-08T03:30:15.934Z,6.22
2023-01-08T03:30:56.888Z,6.25
2023-01-08T03:31:37.938Z,6.20
2023-01-08T03:32:21.842Z,6.31
2023-01-08T03:33:05.913Z,6.16
2023-01-08T03:33:47.822Z,6.18
2023-01-08T03:34:29.883Z,6.24
2023-01-08T03:35:12.812Z,6.21
2023-01-08T03:36:03.841Z,6.17
2023-01-08T03:37:01.846Z,6.16
2023-01-08T03:38:00.854Z,6.10
2023-01-08T03:39:12.824Z,5.88
2023-01-08T03:40:13.829Z,5.96
2023-01-08T03:41:17.861Z,5.99
2023-01-08T03:42:15.839Z,6.01
2023-01-08T03:43:09.832Z,6.05
2023-01-08T03:44:03.823Z,6.08
2023-01-08T03:44:57.839Z,6.15
2023-01-08T03:45:53.830Z,6.10
2023-01-08T03:46:48.847Z,6.04
2023-01-08T03:47:23.102Z,6.15
2023-01-08T03:48:11.797Z,6.15
2023-01-08T03:48:45.884Z,6.16
2023-01-08T03:49:35.824Z,6.08
2023-01-08T03:50:13.906Z,6.15
2023-01-08T03:51:00.813Z,5.99
2023-01-08T03:51:34.889Z,6.13
2023-01-08T03:52:15.838Z,6.17
2023-01-08T03:52:55.878Z,6.10
2023-01-08T03:53:36.798Z,6.17
2023-01-08T03:54:30.858Z,6.16
2023-01-08T03:55:11.796Z,6.26
2023-01-08T03:55:51.872Z,6.26
2023-01-08T03:56:32.824Z,6.18
2023-01-08T03:57:12.889Z,6.07
2023-01-08T03:57:53.825Z,6.20
2023-01-08T03:58:33.860Z,6.13
2023-01-08T03:59:13.798Z,6.22
2023-01-08T03:59:53.887Z,6.18
2023-01-08T04:00:33.789Z,6.18
2023-01-08T04:01:13.983Z,6.20
2023-01-08T04:01:53.883Z,6.30
2023-01-08T04:02:34.989Z,6.29
2023-01-08T04:03:15.821Z,6.17
2023-01-08T04:03:55.926Z,6.16
2023-01-08T04:04:35.813Z,6.26
2023-01-08T04:05:16.875Z,6.17
2023-01-08T04:05:56.798Z,6.27
2023-01-08T04:06:36.859Z,6.18
2023-01-08T04:07:18.794Z,6.09
2023-01-08T04:08:02.883Z,6.18
2023-01-08T04:08:42.799Z,6.15
2023-01-08T04:09:22.910Z,6.18
2023-01-08T04:10:02.802Z,6.20
2023-01-08T04:10:42.893Z,6.17
2023-01-08T04:11:23.802Z,6.03
2023-01-08T04:12:03.862Z,6.18
2023-01-08T04:12:43.795Z,6.13
2023-01-08T04:13:23.856Z,6.22
2023-01-08T04:14:03.838Z,6.21
2023-01-08T04:14:43.836Z,6.05
2023-01-08T04:15:24.826Z,6.12
2023-01-08T04:16:04.936Z,6.17
2023-01-08T04:16:44.795Z,6.13
2023-01-08T04:17:24.860Z,6.19
2023-01-08T04:18:04.777Z,6.28
2023-01-08T04:18:44.845Z,6.35
2023-01-08T04:19:24.796Z,6.26
2023-01-08T04:20:04.854Z,6.25
2023-01-08T04:20:45.769Z,6.05
2023-01-08T04:21:25.904Z,6.12
2023-01-08T04:22:05.784Z,6.17
2023-01-08T04:22:45.846Z,6.03
2023-01-08T04:23:25.785Z,6.09
2023-01-08T04:24:05.865Z,6.05
2023-01-08T04:24:45.809Z,6.02
2023-01-08T04:25:39.774Z,5.99
2023-01-08T04:26:33.764Z,5.97
2023-01-08T04:27:27.908Z,6.12
2023-01-08T04:28:22.769Z,6.06
2023-01-08T04:29:17.807Z,6.11
2023-01-08T04:30:04.834Z,6.04
2023-01-08T04:30:38.899Z,6.13
2023-01-08T04:31:25.970Z,5.97
2023-01-08T04:31:59.839Z,6.16
2023-01-08T04:32:46.777Z,6.19
2023-01-08T04:33:20.902Z,6.13
2023-01-08T04:34:07.815Z,6.01
2023-01-08T04:34:41.823Z,5.97
2023-01-08T04:35:28.789Z,6.02
2023-01-08T04:36:02.894Z,6.09
2023-01-08T04:36:49.792Z,5.97
2023-01-08T04:37:23.835Z,6.08
2023-01-08T04:38:11.820Z,6.04
2023-01-08T04:38:45.827Z,6.12
2023-01-08T04:39:32.754Z,6.00
2023-01-08T04:40:06.825Z,5.98
2023-01-08T04:40:53.782Z,5.87
2023-01-08T04:41:27.856Z,5.84
2023-01-08T04:42:14.759Z,6.07
2023-01-08T04:42:48.836Z,6.13
2023-01-08T04:43:37.774Z,6.11
2023-01-08T04:44:11.892Z,6.07
2023-01-08T04:44:58.762Z,6.16
2023-01-08T04:45:32.799Z,6.21
2023-01-08T04:46:13.799Z,6.14
2023-01-08T04:46:53.847Z,6.01
2023-01-08T04:47:33.733Z,6.03
2023-01-08T04:48:13.839Z,6.06
2023-01-08T04:48:54.768Z,6.04
2023-01-08T04:49:34.819Z,6.03
2023-01-08T04:50:15.751Z,6.01
2023-01-08T04:50:55.856Z,6.01
2023-01-08T04:51:35.794Z,6.11
2023-01-08T04:52:15.802Z,6.12
2023-01-08T04:52:55.737Z,6.02
2023-01-08T04:53:36.851Z,6.18
2023-01-08T04:54:17.738Z,6.01
2023-01-08T04:54:57.865Z,6.13
2023-01-08T04:55:39.678Z,6.18
2023-01-08T04:56:19.830Z,6.28
2023-01-08T04:56:59.772Z,6.24
2023-01-08T04:57:39.811Z,6.22
2023-01-08T04:58:19.730Z,6.35
2023-01-08T04:58:59.832Z,6.34
2023-01-08T04:59:40.743Z,6.43
2023-01-08T05:00:21.796Z,6.32
2023-01-08T05:01:01.727Z,6.35
2023-01-08T05:01:41.978Z,6.43
2023-01-08T05:02:22.918Z,6.32
2023-01-08T05:03:02.867Z,6.27
2023-01-08T05:03:42.748Z,6.29
2023-01-08T05:04:22.791Z,6.30
2023-01-08T05:05:02.724Z,6.36
2023-01-08T05:05:42.806Z,6.51
2023-01-08T05:06:22.726Z,6.35
2023-01-08T05:07:02.787Z,6.41
2023-01-08T05:07:42.775Z,6.47
2023-01-08T05:08:22.818Z,6.42
2023-01-08T05:09:03.751Z,6.36
2023-01-08T05:09:43.830Z,6.53
2023-01-08T05:10:24.724Z,6.47
2023-01-08T05:11:08.820Z,6.44
2023-01-08T05:11:49.741Z,6.50
2023-01-08T05:12:29.797Z,6.45
2023-01-08T05:13:09.743Z,6.51
2023-01-08T05:13:49.895Z,6.64
2023-01-08T05:14:29.738Z,6.67
2023-01-08T05:15:09.805Z,6.56
2023-01-08T05:15:49.841Z,6.62
2023-01-08T05:16:31.968Z,6.47
2023-01-08T05:17:11.719Z,6.47
2023-01-08T05:17:51.771Z,6.39
2023-01-08T05:18:31.783Z,6.39
2023-01-08T05:19:11.827Z,6.36
2023-01-08T05:19:51.703Z,6.44
2023-01-08T05:20:31.784Z,6.38
2023-01-08T05:21:12.750Z,6.39
2023-01-08T05:21:53.213Z,6.19
2023-01-08T05:22:32.734Z,6.16
2023-01-08T05:23:12.785Z,6.11
2023-01-08T05:23:54.739Z,6.24
2023-01-08T05:24:34.772Z,6.16
2023-01-08T05:25:15.715Z,6.09
2023-01-08T05:26:13.699Z,6.16
2023-01-08T05:27:07.703Z,6.23
2023-01-08T05:28:01.714Z,6.15
2023-01-08T05:28:55.764Z,6.18
2023-01-08T05:29:49.731Z,6.06
2023-01-08T05:30:43.768Z,6.21
2023-01-08T05:31:38.713Z,6.20
2023-01-08T05:32:32.708Z,6.01
2023-01-08T05:33:26.699Z,6.14
2023-01-08T05:34:13.729Z,6.17
2023-01-08T05:34:47.809Z,6.08
2023-01-08T05:35:34.707Z,6.23
2023-01-08T05:36:12.809Z,6.20
2023-01-08T05:36:59.710Z,6.20
2023-01-08T05:37:33.786Z,6.13
2023-01-08T05:38:20.691Z,6.09
2023-01-08T05:38:54.769Z,6.12
2023-01-08T05:39:34.707Z,6.10
2023-01-08T05:40:15.775Z,6.12
2023-01-08T05:40:59.730Z,6.18
2023-01-08T05:41:39.768Z,6.24
2023-01-08T05:42:19.702Z,6.16
2023-01-08T05:42:59.821Z,6.17
2023-01-08T05:43:40.707Z,6.24
2023-01-08T05:44:20.778Z,6.13
2023-01-08T05:45:00.710Z,6.35
2023-01-08T05:45:40.800Z,6.19
2023-01-08T05:46:20.700Z,6.30
2023-01-08T05:47:00.772Z,6.28
2023-01-08T05:47:41.694Z,6.45
2023-01-08T05:48:21.765Z,6.49
2023-01-08T05:49:01.695Z,6.45
2023-01-08T05:49:41.749Z,6.42
2023-01-08T05:50:22.717Z,6.44
2023-01-08T05:51:02.784Z,6.50
2023-01-08T05:51:42.683Z,6.53
2023-01-08T05:52:23.742Z,6.55
2023-01-08T05:53:04.672Z,6.63
2023-01-08T05:53:44.779Z,6.74
2023-01-08T05:54:24.685Z,6.57
2023-01-08T05:55:04.965Z,6.63
2023-01-08T05:55:44.703Z,6.71
2023-01-08T05:56:24.746Z,6.76
2023-01-08T05:57:04.683Z,6.68
2023-01-08T05:57:44.732Z,6.55
2023-01-08T05:58:27.678Z,6.63
2023-01-08T05:59:07.729Z,6.67
2023-01-08T05:59:47.678Z,6.53
2023-01-08T06:00:27.828Z,6.53
2023-01-08T06:01:17.739Z,6.52
2023-01-08T06:01:58.987Z,6.58
2023-01-08T06:02:38.722Z,6.57
2023-01-08T06:03:18.735Z,6.58
2023-01-08T06:04:02.762Z,6.54
2023-01-08T06:04:42.748Z,6.51
2023-01-08T06:05:22.667Z,6.50
2023-01-08T06:06:07.769Z,6.45
2023-01-08T06:06:48.689Z,6.46
2023-01-08T06:07:28.778Z,6.40
2023-01-08T06:08:08.923Z,6.43
2023-01-08T06:08:48.742Z,6.45
2023-01-08T06:09:28.683Z,6.56
2023-01-08T06:10:08.743Z,6.52
2023-01-08T06:10:48.650Z,6.52
2023-01-08T06:11:28.720Z,6.49
2023-01-08T06:12:08.664Z,6.47
2023-01-08T06:12:48.756Z,6.49
2023-01-08T06:13:28.667Z,6.56
2023-01-08T06:14:08.733Z,6.58
2023-01-08T06:14:48.673Z,6.58
2023-01-08T06:15:28.727Z,6.73
2023-01-08T06:16:09.723Z,6.69
2023-01-08T06:16:50.748Z,6.75
2023-01-08T06:17:30.675Z,6.67
2023-01-08T06:18:11.714Z,6.70
2023-01-08T06:18:51.639Z,6.75
2023-01-08T06:19:31.729Z,6.80
2023-01-08T06:20:12.661Z,6.71
2023-01-08T06:20:53.769Z,6.71
2023-01-08T06:21:33.655Z,6.77
2023-01-08T06:22:13.725Z,6.69
2023-01-08T06:22:53.702Z,6.72
2023-01-08T06:23:33.728Z,6.74
2023-01-08T06:24:14.645Z,6.75
2023-01-08T06:24:54.716Z,6.79
2023-01-08T06:25:36.635Z,6.78
2023-01-08T06:26:30.661Z,6.75
2023-01-08T06:27:24.668Z,6.71
2023-01-08T06:28:11.675Z,6.86
2023-01-08T06:28:45.725Z,6.74
2023-01-08T06:29:32.638Z,6.87
2023-01-08T06:30:06.735Z,6.73
2023-01-08T06:30:53.680Z,6.76
2023-01-08T06:31:27.983Z,6.83
2023-01-08T06:32:14.656Z,6.69
2023-01-08T06:32:48.709Z,6.85
2023-01-08T06:33:36.673Z,6.82
2023-01-08T06:34:10.708Z,6.62
2023-01-08T06:34:57.656Z,6.78
2023-01-08T06:35:32.705Z,6.77
2023-01-08T06:36:19.641Z,6.69
2023-01-08T06:36:53.734Z,6.61
2023-01-08T06:37:40.624Z,6.80
2023-01-08T06:38:14.707Z,6.69
2023-01-08T06:39:02.667Z,6.68
2023-01-08T06:39:36.718Z,6.70
2023-01-08T06:40:24.662Z,6.74
2023-01-08T06:40:58.791Z,6.69
2023-01-08T06:41:45.630Z,6.79
2023-01-08T06:42:19.706Z,6.65
2023-01-08T06:43:11.628Z,6.73
2023-01-08T06:43:46.683Z,6.90
2023-01-08T06:44:26.662Z,6.96
2023-01-08T06:45:06.764Z,6.99
2023-01-08T06:45:46.640Z,6.90
2023-01-08T06:46:26.799Z,6.93
2023-01-08T06:47:06.648Z,6.98
2023-01-08T06:47:46.678Z,7.00
2023-01-08T06:48:27.639Z,6.86
2023-01-08T06:49:07.799Z,7.13
2023-01-08T06:49:47.641Z,7.15
2023-01-08T06:50:27.675Z,7.01
2023-01-08T06:51:08.614Z,7.07
2023-01-08T06:51:48.704Z,7.09
2023-01-08T06:52:29.629Z,7.12
2023-01-08T06:53:09.695Z,7.18
2023-01-08T06:53:49.623Z,7.05
2023-01-08T06:54:29.696Z,7.13
2023-01-08T06:55:11.637Z,7.08
2023-01-08T06:55:56.815Z,7.11
2023-01-08T06:56:52.385Z,7.10
2023-01-08T06:57:33.719Z,6.97
2023-01-08T06:58:13.616Z,7.05
2023-01-08T06:58:53.711Z,7.14
2023-01-08T06:59:33.635Z,7.14
2023-01-08T07:00:23.655Z,7.07
2023-01-08T07:01:17.684Z,6.96
2023-01-08T07:02:11.761Z,6.90
2023-01-08T07:03:06.744Z,6.79
2023-01-08T07:04:00.608Z,7.01
2023-01-08T07:04:54.637Z,7.01
2023-01-08T07:05:42.663Z,7.00
2023-01-08T07:06:26.688Z,6.96
2023-01-08T07:07:13.614Z,7.05
2023-01-08T07:07:47.692Z,7.01
2023-01-08T07:08:34.641Z,7.06
2023-01-08T07:09:08.742Z,7.04
2023-01-08T07:09:55.612Z,6.93
2023-01-08T07:10:31.219Z,7.08
2023-01-08T07:11:11.611Z,6.95
2023-01-08T07:11:51.740Z,6.93
2023-01-08T07:12:31.601Z,7.04
2023-01-08T07:13:12.722Z,7.07
2023-01-08T07:13:52.621Z,7.07
2023-01-08T07:14:32.675Z,6.94
2023-01-08T07:15:13.595Z,7.05
2023-01-08T07:15:53.762Z,7.07
2023-01-08T07:16:33.614Z,7.02
2023-01-08T07:17:13.648Z,7.02
2023-01-08T07:17:53.639Z,6.89
2023-01-08T07:18:33.679Z,7.05
2023-01-08T07:19:14.615Z,6.98
2023-01-08T07:19:54.752Z,6.95
2023-01-08T07:20:34.632Z,7.10
2023-01-08T07:21:16.160Z,7.15
2023-01-08T07:21:56.614Z,7.07
2023-01-08T07:22:36.649Z,7.14
2023-01-08T07:23:18.585Z,7.12
2023-01-08T07:23:59.753Z,7.25
2023-01-08T07:24:39.611Z,7.18
2023-01-08T07:25:19.676Z,7.17
2023-01-08T07:25:59.586Z,7.29
2023-01-08T07:26:53.591Z,7.23
2023-01-08T07:27:33.637Z,7.24
2023-01-08T07:28:17.673Z,7.26
2023-01-08T07:28:58.581Z,7.23
2023-01-08T07:29:38.651Z,7.21
2023-01-08T07:30:29.388Z,7.32
2023-01-08T07:31:12.799Z,7.26
2023-01-08T07:31:52.596Z,7.29
2023-01-08T07:32:32.651Z,7.36
2023-01-08T07:33:12.609Z,7.41
2023-01-08T07:33:52.649Z,7.40
2023-01-08T07:34:32.567Z,7.42
2023-01-08T07:35:12.651Z,7.42
2023-01-08T07:36:00.592Z,7.38
2023-01-08T07:36:40.633Z,7.42
2023-01-08T07:37:20.603Z,7.37
2023-01-08T07:38:00.642Z,7.41
2023-01-08T07:38:41.602Z,7.43
2023-01-08T07:39:21.660Z,7.33
2023-01-08T07:40:01.568Z,7.39
2023-01-08T07:40:41.677Z,7.35
2023-01-08T07:41:22.577Z,7.40
2023-01-08T07:42:02.710Z,7.34
2023-01-08T07:42:43.559Z,7.23
2023-01-08T07:43:23.659Z,7.33
2023-01-08T07:44:03.600Z,7.36
2023-01-08T07:44:43.645Z,7.31
2023-01-08T07:45:23.570Z,7.26
2023-01-08T07:46:03.792Z,7.36
2023-01-08T07:46:43.670Z,7.46
2023-01-08T07:47:24.617Z,7.49
2023-01-08T07:48:05.578Z,7.51
2023-01-08T07:48:45.627Z,7.55
2023-01-08T07:49:25.569Z,7.47
2023-01-08T07:50:05.623Z,7.32
2023-01-08T07:50:46.592Z,7.42
2023-01-08T07:51:26.799Z,7.35
2023-01-08T07:52:06.564Z,7.40
2023-01-08T07:52:46.723Z,7.34
2023-01-08T07:53:27.578Z,7.43
2023-01-08T07:54:08.622Z,7.56
2023-01-08T07:54:48.608Z,7.49
2023-01-08T07:55:28.637Z,7.47
2023-01-08T07:56:12.557Z,7.57
2023-01-08T07:56:52.641Z,7.52
2023-01-08T07:57:33.571Z,7.60
2023-01-08T07:58:18.694Z,7.53
2023-01-08T07:58:59.570Z,7.52
2023-01-08T07:59:39.618Z,7.46
2023-01-08T08:00:21.574Z,7.57
2023-01-08T08:01:02.686Z,7.49
2023-01-08T08:01:42.669Z,7.55
2023-01-08T08:02:22.731Z,7.38
2023-01-08T08:03:02.677Z,7.48
2023-01-08T08:03:42.683Z,7.50
2023-01-08T08:04:23.556Z,7.47
2023-01-08T08:05:03.615Z,7.44
2023-01-08T08:05:44.588Z,7.26
2023-01-08T08:06:24.649Z,7.29
2023-01-08T08:07:04.566Z,7.14
2023-01-08T08:07:44.638Z,7.03
2023-01-08T08:08:24.530Z,7.14
2023-01-08T08:09:04.682Z,7.11
2023-01-08T08:09:44.563Z,6.97
2023-01-08T08:10:24.675Z,7.14
2023-01-08T08:11:04.604Z,7.06
2023-01-08T08:11:44.610Z,6.90
2023-01-08T08:12:24.539Z,7.03
2023-01-08T08:13:04.615Z,7.04
2023-01-08T08:13:50.141Z,7.00
2023-01-08T08:14:31.605Z,7.05
2023-01-08T08:15:12.545Z,7.17
2023-01-08T08:15:52.630Z,7.10
2023-01-08T08:16:32.625Z,7.25
2023-01-08T08:17:12.619Z,7.17
2023-01-08T08:17:54.543Z,7.17
2023-01-08T08:18:34.701Z,7.15
2023-01-08T08:19:14.539Z,7.13
2023-01-08T08:19:54.596Z,7.18
2023-01-08T08:20:35.555Z,7.18
2023-01-08T08:21:15.604Z,7.15
2023-01-08T08:21:55.559Z,7.11
2023-01-08T08:22:35.572Z,7.22
2023-01-08T08:23:20.530Z,7.18
2023-01-08T08:24:00.683Z,7.12
2023-01-08T08:24:40.524Z,7.04
2023-01-08T08:25:20.661Z,7.17
2023-01-08T08:26:00.530Z,7.11
2023-01-08T08:26:40.629Z,7.12
2023-01-08T08:27:21.553Z,7.11
2023-01-08T08:28:16.521Z,7.12
2023-01-08T08:29:10.517Z,7.00
2023-01-08T08:30:04.545Z,7.13
2023-01-08T08:30:58.605Z,7.19
2023-01-08T08:31:52.550Z,7.28
2023-01-08T08:32:39.574Z,7.26
2023-01-08T08:33:13.612Z,7.22
2023-01-08T08:34:00.508Z,7.17
2023-01-08T08:34:34.603Z,7.17
2023-01-08T08:35:21.527Z,7.28
2023-01-08T08:35:56.594Z,7.32
2023-01-08T08:36:43.528Z,7.28
2023-01-08T08:37:17.630Z,7.22
2023-01-08T08:38:05.556Z,7.24
2023-01-08T08:38:39.992Z,7.25
2023-01-08T08:39:26.503Z,7.36
2023-01-08T08:40:01.644Z,7.40
2023-01-08T08:40:49.561Z,7.33
2023-01-08T08:41:24.619Z,7.41
2023-01-08T08:42:11.502Z,7.37
2023-01-08T08:42:45.600Z,7.34
2023-01-08T08:43:26.539Z,7.36
2023-01-08T08:44:06.573Z,7.26
2023-01-08T08:44:47.504Z,7.27
2023-01-08T08:45:27.580Z,7.32
2023-01-08T08:46:07.498Z,7.33
2023-01-08T08:46:47.687Z,7.34
2023-01-08T08:47:28.506Z,7.39
2023-01-08T08:48:09.662Z,7.42
2023-01-08T08:48:52.515Z,7.42
2023-01-08T08:49:32.596Z,7.33
2023-01-08T08:50:13.504Z,7.34
2023-01-08T08:50:53.621Z,7.42
2023-01-08T08:51:34.517Z,7.47
2023-01-08T08:52:14.583Z,7.41
2023-01-08T08:52:55.482Z,7.44
2023-01-08T08:53:35.576Z,7.35
2023-01-08T08:54:17.498Z,7.32
2023-01-08T08:54:57.544Z,7.28
2023-01-08T08:55:38.497Z,7.28
2023-01-08T08:56:18.617Z,7.23
2023-01-08T08:56:58.498Z,7.09
2023-01-08T08:57:38.575Z,7.23
2023-01-08T08:58:20.499Z,7.19
2023-01-08T08:59:00.569Z,7.28
2023-01-08T08:59:40.507Z,7.29
2023-01-08T09:00:21.572Z,7.31
2023-01-08T09:01:01.482Z,7.46
2023-01-08T09:01:41.682Z,7.48
2023-01-08T09:03:23.631Z,7.39
2023-01-08T09:04:04.506Z,7.51
2023-01-08T09:04:51.532Z,7.51
2023-01-08T09:05:51.491Z,7.52
2023-01-08T09:06:45.491Z,7.60
2023-01-08T09:07:39.501Z,7.59
2023-01-08T09:08:33.499Z,7.50
2023-01-08T09:09:27.489Z,7.37
2023-01-08T09:10:15.533Z,7.43
2023-01-08T09:10:49.565Z,7.49
2023-01-08T09:11:37.469Z,7.61
2023-01-08T09:12:11.544Z,7.51
2023-01-08T09:13:00.496Z,7.51
2023-01-08T09:13:34.542Z,7.51
2023-01-08T09:14:21.475Z,7.56
2023-01-08T09:14:57.000Z,7.48
2023-01-08T09:15:37.517Z,7.50
2023-01-08T09:16:17.973Z,7.42
2023-01-08T09:16:57.480Z,7.47
2023-01-08T09:17:37.531Z,7.50
2023-01-08T09:18:18.457Z,7.51
2023-01-08T09:18:58.549Z,7.47
2023-01-08T09:19:38.471Z,7.49
2023-01-08T09:20:19.527Z,7.53
2023-01-08T09:21:00.475Z,7.47
2023-01-08T09:21:40.592Z,7.51
2023-01-08T09:22:20.482Z,7.49
2023-01-08T09:23:00.556Z,7.49
2023-01-08T09:23:45.475Z,7.52
2023-01-08T09:24:26.573Z,7.45
2023-01-08T09:25:07.471Z,7.49
2023-01-08T09:25:47.549Z,7.52
2023-01-08T09:26:27.471Z,7.47
2023-01-08T09:27:09.593Z,7.58
2023-01-08T09:27:51.443Z,7.53
2023-01-08T09:28:31.542Z,7.76
2023-01-08T09:29:12.489Z,7.72
2023-01-08T09:29:52.535Z,7.72
2023-01-08T09:30:32.476Z,7.75
2023-01-08T09:31:12.677Z,7.76
2023-01-08T09:31:53.572Z,7.74
2023-01-08T09:32:33.600Z,7.80
2023-01-08T09:33:14.485Z,7.67
2023-01-08T09:33:56.535Z,7.61
2023-01-08T09:34:38.481Z,7.72